createdAt,value
2019-01-21T00:00:18.888Z,12.8
2019-01-21T00:02:18.527Z,13.4
2019-01-21T00:04:19.161Z,12.1
2019-01-21T00:06:19.004Z,14.3
2019-01-21T00:08:18.638Z,13.1
2019-01-21T00:10:18.866Z,11.9
2019-01-21T00:12:18.506Z,11.9
2019-01-21T00:14:19.157Z,12.9
2019-01-21T00:16:19.168Z,13.1
2019-01-21T00:18:18.875Z,14.4
2019-01-21T00:20:18.526Z,13.4
2019-01-21T00:22:19.158Z,14.4
2019-01-21T00:24:18.784Z,13.3
2019-01-21T00:26:19.059Z,13.3
2019-01-21T00:28:20.100Z,13.5
2019-01-21T00:30:18.908Z,14.1
2019-01-21T00:32:18.565Z,13.8
2019-01-21T00:34:19.212Z,12.1
2019-01-21T00:36:18.525Z,13.2
2019-01-21T00:38:19.158Z,11.3
2019-01-21T00:40:19.330Z,12.8
2019-01-21T00:42:19.228Z,12.1
2019-01-21T00:44:18.852Z,12.1
2019-01-21T00:46:19.188Z,12.4
2019-01-21T00:48:18.860Z,13.4
2019-01-21T00:50:18.552Z,13.1
2019-01-21T00:52:19.195Z,13.1
2019-01-21T00:54:18.836Z,12.7
2019-01-21T00:56:19.174Z,11.7
2019-01-21T00:58:18.827Z,13.7
2019-01-21T01:00:18.470Z,11.9
2019-01-21T01:02:19.137Z,12.2
2019-01-21T01:04:18.799Z,12.6
2019-01-21T01:06:18.636Z,12.4
2019-01-21T01:08:19.294Z,12.8
2019-01-21T01:10:18.447Z,11.3
2019-01-21T01:12:19.083Z,11.7
2019-01-21T01:14:18.731Z,11.4
2019-01-21T01:16:19.125Z,12.3
2019-01-21T01:18:18.865Z,13
2019-01-21T01:20:18.527Z,13.3
2019-01-21T01:22:19.189Z,13.6
2019-01-21T01:24:18.883Z,12
2019-01-21T01:26:18.781Z,11.7
2019-01-21T01:28:18.416Z,12.4
2019-01-21T01:30:19.054Z,13.6
2019-01-21T01:32:18.702Z,11.2
2019-01-21T01:34:19.385Z,12.9
2019-01-21T01:36:18.687Z,12.6
2019-01-21T01:38:19.303Z,12.1
2019-01-21T01:40:19.442Z,13.4
2019-01-21T01:42:19.121Z,12.2
2019-01-21T01:44:18.796Z,10.9
2019-01-21T01:46:18.637Z,10.6
2019-01-21T01:48:19.305Z,14
2019-01-21T01:50:18.966Z,13.2
2019-01-21T01:52:18.631Z,12.3
2019-01-21T01:54:19.305Z,12.2
2019-01-21T01:56:19.235Z,10.7
2019-01-21T01:58:18.915Z,10.4
2019-01-21T02:00:18.549Z,10.8
2019-01-21T02:02:19.197Z,12.8
2019-01-21T02:04:18.476Z,13.2
2019-01-21T02:06:19.356Z,11.9
2019-01-21T02:08:19.009Z,11.1
2019-01-21T02:10:19.158Z,12.9
2019-01-21T02:12:19.111Z,10.2
2019-01-21T02:14:18.857Z,10.7
2019-01-21T02:16:18.754Z,13.9
2019-01-21T02:18:18.503Z,14.1
2019-01-21T02:20:19.163Z,12.5
2019-01-21T02:22:18.811Z,11.9
2019-01-21T02:24:18.465Z,11.7
2019-01-21T02:26:18.679Z,11.6
2019-01-21T02:28:19.314Z,10.6
2019-01-21T02:30:18.983Z,11.6
2019-01-21T02:32:18.646Z,11.8
2019-01-21T02:34:19.322Z,12.1
2019-01-21T02:36:19.234Z,10.6
2019-01-21T02:38:18.453Z,10.5
2019-01-21T02:40:18.607Z,11.1
2019-01-21T02:42:19.231Z,10.6
2019-01-21T02:44:18.894Z,11.4
2019-01-21T02:46:18.949Z,10.7
2019-01-21T02:48:18.591Z,11.4
2019-01-21T02:50:19.313Z,10.9
2019-01-21T02:52:18.988Z,12
2019-01-21T02:54:18.651Z,12.8
2019-01-21T02:56:18.554Z,13.2
2019-01-21T02:58:19.192Z,12.1
2019-01-21T03:00:18.895Z,12.1
2019-01-21T03:02:18.544Z,12.3
2019-01-21T03:04:19.182Z,11.9
2019-01-21T03:06:19.160Z,13.1
2019-01-21T03:08:18.831Z,11
2019-01-21T03:10:18.988Z,13.3
2019-01-21T03:12:19.212Z,11.5
2019-01-21T03:14:18.878Z,12.7
2019-01-21T03:16:19.277Z,11.6
2019-01-21T03:18:19.017Z,10.8
2019-01-21T03:20:18.691Z,9.4
2019-01-21T03:22:19.338Z,11.2
2019-01-21T03:24:19.039Z,10.1
2019-01-21T03:26:19.375Z,10.3
2019-01-21T03:28:19.055Z,10.6
2019-01-21T03:30:18.723Z,10.1
2019-01-21T03:32:19.406Z,11.3
2019-01-21T03:34:19.045Z,9.1
2019-01-21T03:36:18.421Z,10.2
2019-01-21T03:38:19.120Z,10.5
2019-01-21T03:40:19.337Z,10.7
2019-01-21T03:42:18.991Z,9.4
2019-01-21T03:44:18.654Z,10.8
2019-01-21T03:46:19.159Z,11.4
2019-01-21T03:48:18.810Z,10.3
2019-01-21T03:50:18.480Z,9.6
2019-01-21T03:52:19.126Z,11.8
2019-01-21T03:54:18.775Z,10.1
2019-01-21T03:56:19.144Z,12.7
2019-01-21T03:58:18.783Z,10.1
2019-01-21T04:00:18.446Z,9.9
2019-01-21T04:02:19.095Z,12.3
2019-01-21T04:04:18.758Z,11.3
2019-01-21T04:06:19.220Z,12.6
2019-01-21T04:08:18.867Z,11.9
2019-01-21T04:10:19.026Z,11.1
2019-01-21T04:12:18.678Z,11.3
2019-01-21T04:14:19.328Z,12.2
2019-01-21T04:16:19.242Z,11
2019-01-21T04:18:24.432Z,9.9
2019-01-21T04:20:19.377Z,11.7
2019-01-21T04:22:19.033Z,11.5
2019-01-21T04:24:18.695Z,11.3
2019-01-21T04:26:19.165Z,11.7
2019-01-21T04:28:18.823Z,11.5
2019-01-21T04:30:18.493Z,11.6
2019-01-21T04:32:19.135Z,11.3
2019-01-21T04:34:18.812Z,10.6
2019-01-21T04:36:19.358Z,10.4
2019-01-21T04:38:19.017Z,13.1
2019-01-21T04:40:19.177Z,11.5
2019-01-21T04:42:18.940Z,11.2
2019-01-21T04:44:18.622Z,10.2
2019-01-21T04:46:19.297Z,10.7
2019-01-21T04:48:18.999Z,11.2
2019-01-21T04:50:18.702Z,11.7
2019-01-21T04:52:19.094Z,12.4
2019-01-21T04:54:19.273Z,12.2
2019-01-21T04:56:19.154Z,11.4
2019-01-21T04:58:18.814Z,12.2
2019-01-21T05:00:18.491Z,10.5
2019-01-21T05:02:18.646Z,11.7
2019-01-21T05:04:19.319Z,13
2019-01-21T05:06:19.165Z,11.6
2019-01-21T05:08:18.833Z,11.8
2019-01-21T05:10:18.988Z,11.2
2019-01-21T05:12:18.668Z,11.5
2019-01-21T05:14:19.439Z,11.6
2019-01-21T05:16:18.688Z,11.1
2019-01-21T05:18:18.472Z,11.3
2019-01-21T05:20:19.169Z,12.8
2019-01-21T05:22:18.837Z,10.2
2019-01-21T05:24:18.520Z,11.7
2019-01-21T05:26:18.953Z,12
2019-01-21T05:28:18.659Z,13.5
2019-01-21T05:30:19.339Z,12.2
2019-01-21T05:32:19.012Z,11.5
2019-01-21T05:34:18.690Z,11.7
2019-01-21T05:36:19.410Z,10.7
2019-01-21T05:38:19.082Z,11.3
2019-01-21T05:40:19.202Z,10.6
2019-01-21T05:42:18.868Z,11.9
2019-01-21T05:44:18.548Z,12.2
2019-01-21T05:46:18.967Z,11.8
2019-01-21T05:48:18.638Z,11.3
2019-01-21T05:50:19.325Z,10.6
2019-01-21T05:52:19.006Z,10.9
2019-01-21T05:54:18.689Z,10.2
2019-01-21T05:56:19.056Z,11.2
2019-01-21T05:58:18.730Z,10.7
2019-01-21T06:00:19.409Z,10.2
2019-01-21T06:02:19.048Z,9.7
2019-01-21T06:04:18.714Z,11.2
2019-01-21T06:06:19.101Z,11.1
2019-01-21T06:08:18.768Z,10.4
2019-01-21T06:10:18.928Z,12.2
2019-01-21T06:12:18.617Z,10.7
2019-01-21T06:14:19.269Z,11.9
2019-01-21T06:16:19.203Z,11.1
2019-01-21T06:18:18.919Z,11.1
2019-01-21T06:20:18.595Z,12.6
2019-01-21T06:22:19.242Z,10.9
2019-01-21T06:24:18.901Z,10.6
2019-01-21T06:26:19.012Z,11.9
2019-01-21T06:28:18.662Z,9.7
2019-01-21T06:30:19.418Z,10.8
2019-01-21T06:32:19.069Z,10.5
2019-01-21T06:34:18.726Z,9.5
2019-01-21T06:36:18.720Z,10.6
2019-01-21T06:38:18.468Z,9.3
2019-01-21T06:40:18.715Z,11.1
2019-01-21T06:42:19.403Z,10.2
2019-01-21T06:44:19.098Z,10.9
2019-01-21T06:46:18.970Z,10.5
2019-01-21T06:48:18.656Z,10.8
2019-01-21T06:50:19.324Z,11.4
2019-01-21T06:52:18.960Z,10.9
2019-01-21T06:54:18.612Z,10.3
2019-01-21T06:56:18.980Z,11.8
2019-01-21T06:58:18.638Z,10.4
2019-01-21T07:00:19.323Z,10.2
2019-01-21T07:02:18.969Z,12.1
2019-01-21T07:04:18.640Z,12.2
2019-01-21T07:06:18.884Z,11.4
2019-01-21T07:08:18.577Z,12
2019-01-21T07:10:18.746Z,11.8
2019-01-21T07:12:19.402Z,12.7
2019-01-21T07:14:19.067Z,12.5
2019-01-21T07:16:18.932Z,13.1
2019-01-21T07:18:19.651Z,12.3
2019-01-21T07:20:19.433Z,11.7
2019-01-21T07:22:19.107Z,10.6
2019-01-21T07:24:18.745Z,11.8
2019-01-21T07:26:19.239Z,13.1
2019-01-21T07:28:18.899Z,12.4
2019-01-21T07:30:18.557Z,12.3
2019-01-21T07:32:19.240Z,13.6
2019-01-21T07:34:18.909Z,14.3
2019-01-21T07:36:18.796Z,11.7
2019-01-21T07:38:18.478Z,13.1
2019-01-21T07:40:18.619Z,12.1
2019-01-21T08:22:18.125Z,22.4
2019-01-21T08:24:18.770Z,17.9
2019-01-21T08:26:19.087Z,15
2019-01-21T08:28:18.722Z,14.3
2019-01-21T08:30:19.383Z,13.3
2019-01-21T08:32:19.029Z,12.5
2019-01-21T08:34:18.645Z,14.5
2019-01-21T08:36:18.474Z,14
2019-01-21T08:38:19.091Z,12.7
2019-01-21T08:40:19.367Z,12.3
2019-01-21T08:42:18.980Z,12.9
2019-01-21T08:44:18.620Z,13
2019-01-21T08:46:21.412Z,12.3
2019-01-21T08:48:19.163Z,13.9
2019-01-21T08:50:18.812Z,13.7
2019-01-21T08:52:18.446Z,14.3
2019-01-21T08:54:19.088Z,14.2
2019-01-21T08:56:19.402Z,14.3
2019-01-21T08:58:19.030Z,16.3
2019-01-21T09:00:18.655Z,14.3
2019-01-21T09:02:19.290Z,15.5
2019-01-21T09:04:18.942Z,15.7
2019-01-21T09:06:19.235Z,14.9
2019-01-21T09:08:18.902Z,13.6
2019-01-21T09:10:18.997Z,15
2019-01-21T09:12:18.631Z,14.3
2019-01-21T09:14:19.267Z,15.7
2019-01-21T09:16:18.612Z,15.2
2019-01-21T09:18:19.306Z,12.9
2019-01-21T09:20:18.949Z,13.7
2019-01-21T09:22:18.579Z,14.3
2019-01-21T09:24:19.215Z,13.4
2019-01-21T09:26:18.520Z,12
2019-01-21T09:28:19.126Z,15.5
2019-01-21T09:30:18.763Z,13.2
2019-01-21T09:32:19.455Z,14.6
2019-01-21T09:34:19.100Z,12.1
2019-01-21T09:36:19.358Z,13.4
2019-01-21T09:38:19.001Z,13.8
2019-01-21T09:40:19.130Z,14.3
2019-01-21T09:42:19.061Z,13.1
2019-01-21T09:44:18.700Z,11
2019-01-21T09:46:19.095Z,14.8
2019-01-21T09:48:18.711Z,14.4
2019-01-21T09:50:19.336Z,12.1
2019-01-21T09:52:18.959Z,12.9
2019-01-21T09:54:18.619Z,12.2
2019-01-21T09:56:18.920Z,12.1
2019-01-21T09:58:18.574Z,12
2019-01-21T10:00:19.208Z,13.7
2019-01-21T10:02:18.845Z,12.6
2019-01-21T10:04:18.477Z,13.3
2019-01-21T10:06:18.788Z,13.5
2019-01-21T10:08:19.406Z,12.3
2019-01-21T10:10:18.614Z,12.2
2019-01-21T10:12:19.261Z,12.1
2019-01-21T10:14:18.872Z,13.1
2019-01-21T10:16:18.857Z,12.9
2019-01-21T10:18:18.582Z,13.9
2019-01-21T10:20:19.225Z,13
2019-01-21T10:22:19.359Z,13.3
2019-01-21T10:24:18.974Z,13.7
2019-01-21T10:26:19.260Z,12.5
2019-01-21T10:28:18.917Z,14.4
2019-01-21T10:30:18.599Z,12.6
2019-01-21T10:32:19.243Z,13.6
2019-01-21T10:34:18.881Z,13.4
2019-01-21T10:36:18.763Z,14.4
2019-01-21T10:38:19.418Z,13.8
2019-01-21T10:40:18.639Z,12.3
2019-01-21T10:42:19.284Z,14.5
2019-01-21T10:44:18.912Z,15.7
2019-01-21T10:46:18.450Z,15.1
2019-01-21T10:48:19.101Z,14.7
2019-01-21T10:50:18.752Z,15.1
2019-01-21T10:52:19.413Z,14.4
2019-01-21T10:54:19.069Z,13.4
2019-01-21T10:56:18.986Z,14.6
2019-01-21T10:58:18.627Z,14.3
2019-01-21T11:00:19.270Z,16.3
2019-01-21T11:02:18.883Z,14.6
2019-01-21T11:04:18.566Z,14.9
2019-01-21T11:06:19.420Z,14.7
2019-01-21T11:08:19.098Z,16.1
2019-01-21T11:10:19.248Z,15.9
2019-01-21T11:12:18.885Z,16.9
2019-01-21T11:14:18.528Z,15.2
2019-01-21T11:16:18.844Z,16.6
2019-01-21T11:18:18.554Z,17.6
2019-01-21T11:20:19.202Z,15.1
2019-01-21T11:22:18.823Z,16.8
2019-01-21T11:24:18.478Z,16.3
2019-01-21T11:26:18.834Z,16.3
2019-01-21T11:28:18.506Z,14.7
2019-01-21T11:30:19.178Z,14.9
2019-01-21T11:32:18.899Z,15.2
2019-01-21T11:34:18.507Z,15.8
2019-01-21T11:36:19.312Z,13.6
2019-01-21T11:38:18.940Z,14.6
2019-01-21T11:40:19.117Z,14.4
2019-01-21T11:42:18.521Z,14.6
2019-01-21T11:44:19.150Z,13.1
2019-01-21T11:46:19.132Z,14.1
2019-01-21T11:48:18.793Z,14.8
2019-01-21T11:50:19.419Z,15.1
2019-01-21T11:52:19.127Z,14.1
2019-01-21T11:54:18.752Z,15.2
2019-01-21T11:56:19.122Z,16.5
2019-01-21T11:58:18.732Z,14.9
2019-01-21T12:00:19.411Z,14.1
2019-01-21T12:02:19.050Z,15.7
2019-01-21T12:04:18.703Z,14.7
2019-01-21T12:06:18.510Z,15.1
2019-01-21T12:08:19.175Z,16
2019-01-21T12:10:19.334Z,15.3
2019-01-21T12:12:18.986Z,16.3
2019-01-21T12:14:18.604Z,15.9
2019-01-21T12:16:18.737Z,13.9
2019-01-21T12:18:18.442Z,16
2019-01-21T12:20:19.184Z,15.2
2019-01-21T12:22:18.779Z,13.8
2019-01-21T12:24:18.481Z,15.3
2019-01-21T12:26:18.786Z,15.4
2019-01-21T12:28:19.428Z,16.4
2019-01-21T12:30:19.079Z,18.4
2019-01-21T12:32:18.731Z,13.9
2019-01-21T12:34:19.378Z,15.3
2019-01-21T12:36:19.195Z,15.7
2019-01-21T12:38:18.805Z,14.3
2019-01-21T12:40:18.896Z,15.4
2019-01-21T12:42:18.508Z,15
2019-01-21T12:44:19.132Z,16.4
2019-01-21T12:46:18.938Z,15
2019-01-21T12:48:18.582Z,17.1
2019-01-21T12:50:23.891Z,15.8
2019-01-21T12:52:18.785Z,17.6
2019-01-21T12:54:19.420Z,14.9
2019-01-21T12:56:19.235Z,14.5
2019-01-21T12:58:18.838Z,14.8
2019-01-21T13:00:18.485Z,14.5
2019-01-21T13:02:19.139Z,16.7
2019-01-21T13:04:18.758Z,15
2019-01-21T13:06:18.865Z,14.8
2019-01-21T13:08:18.518Z,14.9
2019-01-21T13:10:18.767Z,16.5
2019-01-21T13:12:19.403Z,15.1
2019-01-21T13:14:19.058Z,15.7
2019-01-21T13:16:18.845Z,15.4
2019-01-21T13:18:18.593Z,15.8
2019-01-21T13:20:19.227Z,14.5
2019-01-21T13:22:18.869Z,16.7
2019-01-21T13:24:18.531Z,14.9
2019-01-21T13:26:18.912Z,16
2019-01-21T13:28:18.535Z,15.6
2019-01-21T13:30:19.231Z,14.3
2019-01-21T13:32:18.897Z,15.5
2019-01-21T13:34:18.562Z,15.2
2019-01-21T13:36:19.402Z,15.5
2019-01-21T13:38:19.039Z,16
2019-01-21T13:40:19.146Z,16.2
2019-01-21T13:42:18.811Z,15.8
2019-01-21T13:44:18.469Z,15.4
2019-01-21T13:46:19.256Z,15.6
2019-01-21T13:48:18.904Z,15.2
2019-01-21T13:50:18.751Z,15.5
2019-01-21T13:52:19.386Z,15.1
2019-01-21T13:54:19.056Z,15.9
2019-01-21T13:56:19.151Z,14.8
2019-01-21T13:58:18.810Z,13.5
2019-01-21T14:00:18.442Z,15.3
2019-01-21T14:02:19.096Z,14.3
2019-01-21T14:04:18.750Z,14.6
2019-01-21T14:06:18.602Z,15
2019-01-21T14:08:19.230Z,15
2019-01-21T14:10:19.369Z,13.2
2019-01-21T14:12:19.081Z,14.9
2019-01-21T14:14:18.742Z,14.6
2019-01-21T14:16:18.580Z,13.1
2019-01-21T14:18:19.322Z,14.1
2019-01-21T14:20:18.966Z,14.6
2019-01-21T14:22:18.621Z,13.6
2019-01-21T14:24:19.292Z,13.1
2019-01-21T14:26:18.930Z,12.6
2019-01-21T14:28:18.602Z,13.5
2019-01-21T14:30:19.253Z,14.5
2019-01-21T14:32:18.896Z,13.4
2019-01-21T14:34:18.565Z,16.1
2019-01-21T14:36:18.864Z,13.8
2019-01-21T14:38:18.519Z,12.8
2019-01-21T14:40:18.603Z,14.1
2019-01-21T14:42:19.250Z,15.8
2019-01-21T14:44:18.907Z,14.1
2019-01-21T14:46:18.829Z,15
2019-01-21T14:48:18.473Z,14.2
2019-01-21T14:50:19.151Z,15.5
2019-01-21T14:52:18.803Z,14.2
2019-01-21T14:54:18.424Z,15.4
2019-01-21T14:56:18.857Z,15.7
2019-01-21T14:58:18.581Z,14
2019-01-21T15:00:19.318Z,14.9
2019-01-21T15:02:19.085Z,16.1
2019-01-21T15:04:18.836Z,15.8
2019-01-21T15:06:18.850Z,15.7
2019-01-21T15:08:18.530Z,16.1
2019-01-21T15:10:18.688Z,16.7
2019-01-21T15:12:19.403Z,15.5
2019-01-21T15:14:19.074Z,15.7
2019-01-21T15:16:19.015Z,16.8
2019-01-21T15:18:18.762Z,15.7
2019-01-21T15:20:19.486Z,16.8
2019-01-21T15:22:19.204Z,16.4
2019-01-21T15:24:18.935Z,16
2019-01-21T15:26:19.292Z,16.1
2019-01-21T15:28:19.081Z,17.4
2019-01-21T15:30:18.943Z,17.6
2019-01-21T15:32:18.702Z,18.9
2019-01-21T15:34:19.490Z,18.3
2019-01-21T15:36:18.971Z,17.7
2019-01-21T15:38:18.685Z,17.8
2019-01-21T15:40:18.987Z,16.1
2019-01-21T15:42:18.691Z,17.1
2019-01-21T15:44:19.432Z,18.9
2019-01-21T15:46:18.825Z,18.5
2019-01-21T15:48:18.514Z,17.8
2019-01-21T15:50:19.122Z,16.8
2019-01-21T15:52:18.759Z,17.6
2019-01-21T15:54:19.382Z,19.1
2019-01-21T15:56:18.678Z,19.9
2019-01-21T15:58:19.335Z,17.2
2019-01-21T16:00:18.985Z,16.7
2019-01-21T16:02:18.608Z,15.8
2019-01-21T16:04:19.270Z,18.2
2019-01-21T16:06:19.136Z,16.3
2019-01-21T16:08:18.752Z,17.4
2019-01-21T16:10:18.881Z,15.8
2019-01-21T16:12:18.557Z,17.1
2019-01-21T16:14:19.199Z,19
2019-01-21T16:16:18.972Z,19.6
2019-01-21T16:18:18.677Z,18.9
2019-01-21T16:20:19.298Z,17.3
2019-01-21T16:22:18.927Z,17.2
2019-01-21T16:24:18.594Z,17.4
2019-01-21T16:26:18.855Z,16.8
2019-01-21T16:28:18.469Z,18.4
2019-01-21T16:30:19.107Z,17.4
2019-01-21T16:32:18.730Z,17.2
2019-01-21T16:34:19.337Z,16.6
2019-01-21T16:36:19.276Z,16.2
2019-01-21T16:38:18.959Z,19
2019-01-21T16:40:19.067Z,17.8
2019-01-21T16:42:18.694Z,17.8
2019-01-21T16:44:19.357Z,17.2
2019-01-21T16:46:19.327Z,17.7
2019-01-21T16:48:18.961Z,17.5
2019-01-21T16:50:18.654Z,17.6
2019-01-21T16:52:19.278Z,18.2
2019-01-21T16:54:18.911Z,17.3
2019-01-21T16:56:19.251Z,17.8
2019-01-21T16:58:18.885Z,17.4
2019-01-21T17:00:18.538Z,17.3
2019-01-21T17:02:19.209Z,16.4
2019-01-21T17:04:18.872Z,16.6
2019-01-21T17:06:18.688Z,19.1
2019-01-21T17:08:19.339Z,18.3
2019-01-21T17:10:18.466Z,17.5
2019-01-21T17:12:19.093Z,19.3
2019-01-21T17:14:18.720Z,18.2
2019-01-21T17:16:19.047Z,18.7
2019-01-21T17:18:18.754Z,17.2
2019-01-21T17:20:19.415Z,20.1
2019-01-21T17:22:19.079Z,17.4
2019-01-21T17:24:18.700Z,17.2
2019-01-21T17:26:19.083Z,20
2019-01-21T17:28:18.716Z,16.7
2019-01-21T17:30:19.378Z,18.7
2019-01-21T17:32:19.009Z,20.4
2019-01-21T17:34:18.659Z,17.1
2019-01-21T17:36:18.920Z,17
2019-01-21T17:38:18.600Z,17.1
2019-01-21T17:40:18.709Z,17.1
2019-01-21T17:42:19.350Z,17
2019-01-21T17:44:18.979Z,17.6
2019-01-21T17:46:19.215Z,17.8
2019-01-21T17:48:18.845Z,19.2
2019-01-21T17:50:18.488Z,19.2
2019-01-21T17:52:19.129Z,20.6
2019-01-21T17:54:18.805Z,18.7
2019-01-21T17:56:18.857Z,20.5
2019-01-21T17:58:18.498Z,19.9
2019-01-21T18:00:19.228Z,16.1
2019-01-21T18:02:18.867Z,18.2
2019-01-21T18:04:18.523Z,18.7
2019-01-21T18:06:18.498Z,16.7
2019-01-21T18:08:19.142Z,21.3
2019-01-21T18:10:19.240Z,19.6
2019-01-21T18:12:18.905Z,19.9
2019-01-21T18:14:18.533Z,20.2
2019-01-21T18:16:19.330Z,19.2
2019-01-21T18:18:19.012Z,19.2
2019-01-21T18:20:18.645Z,21
2019-01-21T18:22:19.265Z,19.5
2019-01-21T18:24:18.897Z,18.7
2019-01-21T18:26:19.322Z,18.4
2019-01-21T18:28:18.952Z,17.9
2019-01-21T18:30:18.564Z,19.1
2019-01-21T18:32:19.200Z,19.3
2019-01-21T18:34:18.839Z,19.4
2019-01-21T18:36:19.123Z,19.3
2019-01-21T18:38:18.743Z,18.9
2019-01-21T18:40:18.880Z,20
2019-01-21T18:42:19.417Z,16.8
2019-01-21T18:44:19.081Z,18.6
2019-01-21T18:46:18.468Z,18.1
2019-01-21T18:48:19.073Z,19.6
2019-01-21T18:50:18.711Z,19.3
2019-01-21T18:52:20.609Z,19.6
2019-01-21T18:54:19.279Z,19.3
2019-01-21T18:56:18.629Z,19.8
2019-01-21T18:58:19.261Z,21.4
2019-01-21T19:00:18.927Z,19
2019-01-21T19:02:18.545Z,17.8
2019-01-21T19:04:19.164Z,18.4
2019-01-21T19:06:19.433Z,18.3
2019-01-21T19:08:19.098Z,22
2019-01-21T19:10:19.214Z,17.7
2019-01-21T19:12:18.844Z,20.4
2019-01-21T19:14:18.457Z,19.7
2019-01-21T19:16:19.250Z,18.7
2019-01-21T19:18:18.922Z,19.2
2019-01-21T19:20:18.533Z,19.7
2019-01-21T19:22:19.158Z,20.2
2019-01-21T19:24:18.782Z,18.4
2019-01-21T19:26:19.220Z,18
2019-01-21T19:28:18.878Z,17.3
2019-01-21T19:30:18.587Z,20.4
2019-01-21T19:32:19.222Z,18.3
2019-01-21T19:34:18.842Z,16
2019-01-21T19:36:18.758Z,19.6
2019-01-21T19:38:19.392Z,19.1
2019-01-21T19:40:18.503Z,18.4
2019-01-21T19:42:19.141Z,19
2019-01-21T19:44:18.777Z,19.1
2019-01-21T19:46:19.029Z,18.4
2019-01-21T19:48:18.672Z,19.3
2019-01-21T19:50:19.309Z,20.1
2019-01-21T19:52:18.941Z,17.1
2019-01-21T19:54:18.580Z,18.4
2019-01-21T19:56:18.833Z,18
2019-01-21T19:58:18.489Z,19.1
2019-01-21T20:00:19.104Z,20.2
2019-01-21T20:02:18.741Z,20.9
2019-01-21T20:04:19.376Z,19.3
2019-01-21T20:06:18.838Z,18.7
2019-01-21T20:08:18.448Z,17.6
2019-01-21T20:10:18.564Z,21.7
2019-01-21T20:12:19.198Z,19
2019-01-21T20:14:18.834Z,20.7
2019-01-21T20:16:19.179Z,19.3
2019-01-21T20:18:18.917Z,17.6
2019-01-21T20:20:18.578Z,19.5
2019-01-21T20:22:19.231Z,21.3
2019-01-21T20:24:18.876Z,19.4
2019-01-21T20:26:18.552Z,18.7
2019-01-21T20:28:19.191Z,20.5
2019-01-21T20:30:18.852Z,19.5
2019-01-21T20:32:18.487Z,18.3
2019-01-21T20:34:19.114Z,19.8
2019-01-21T20:36:18.910Z,18.2
2019-01-21T20:38:18.537Z,19.7
2019-01-21T20:40:18.663Z,19.1
2019-01-21T20:42:19.307Z,20.3
2019-01-21T20:44:18.957Z,20.3
2019-01-21T20:46:18.539Z,20.7
2019-01-21T20:48:19.206Z,19.4
2019-01-21T20:50:18.829Z,20.9
2019-01-21T20:52:18.457Z,19.2
2019-01-21T20:54:19.113Z,19.9
2019-01-21T20:56:18.955Z,19.2
2019-01-21T20:58:18.619Z,22.4
2019-01-21T21:00:19.307Z,21.6
2019-01-21T21:02:18.961Z,20.8
2019-01-21T21:04:18.600Z,19.9
2019-01-21T21:06:18.871Z,20.9
2019-01-21T21:08:18.475Z,20.8
2019-01-21T21:10:18.559Z,20.8
2019-01-21T21:12:25.658Z,20.3
2019-01-21T21:14:18.554Z,19.1
2019-01-21T21:16:18.902Z,22.3
2019-01-21T21:18:18.640Z,20.2
2019-01-21T21:20:19.387Z,21.4
2019-01-21T21:22:21.057Z,21.2
2019-01-21T21:24:18.844Z,19.9
2019-01-21T21:26:19.189Z,21.3
2019-01-21T21:28:18.850Z,18.6
2019-01-21T21:30:19.256Z,18
2019-01-21T21:32:18.923Z,19.8
2019-01-21T21:34:18.573Z,20.2
2019-01-21T21:36:19.110Z,20.8
2019-01-21T21:38:19.161Z,19.7
2019-01-21T21:40:19.329Z,19.9
2019-01-21T21:42:18.978Z,21.9
2019-01-21T21:44:18.643Z,19.7
2019-01-21T21:46:19.187Z,19.9
2019-01-21T21:48:18.821Z,18.8
2019-01-21T21:50:18.501Z,20.5
2019-01-21T21:52:19.171Z,20.4
2019-01-21T21:54:18.819Z,21.7
2019-01-21T21:56:18.695Z,19
2019-01-21T21:58:19.325Z,19.9
2019-01-21T22:00:18.974Z,20.5
2019-01-21T22:02:18.636Z,20.3
2019-01-21T22:04:19.292Z,20.6
2019-01-21T22:06:19.207Z,20.1
2019-01-21T22:08:18.852Z,19
2019-01-21T22:10:19.749Z,20
2019-01-21T22:12:18.731Z,21.4
2019-01-21T22:14:19.384Z,20.4
2019-01-21T22:16:19.267Z,20
2019-01-21T22:18:19.030Z,20.1
2019-01-21T22:20:18.882Z,21.1
2019-01-21T22:22:18.566Z,18.6
2019-01-21T22:24:19.232Z,20.2
2019-01-21T22:26:18.634Z,18.7
2019-01-21T22:28:19.298Z,21.1
2019-01-21T22:30:18.940Z,19.4
2019-01-21T22:32:18.594Z,20.2
2019-01-21T22:34:19.227Z,19.2
2019-01-21T22:36:18.561Z,20.2
2019-01-21T22:38:19.188Z,18.4
2019-01-21T22:40:19.336Z,18.4
2019-01-21T22:42:18.984Z,20.2
2019-01-21T22:44:18.645Z,18.8
2019-01-21T22:46:19.086Z,20
2019-01-21T22:48:18.783Z,18.6
2019-01-21T22:50:18.439Z,19.3
2019-01-21T22:52:19.135Z,18
2019-01-21T22:54:18.422Z,20.9
2019-01-21T22:56:18.714Z,18.9
2019-01-21T22:58:19.361Z,18.5
2019-01-21T23:00:19.009Z,20.4
2019-01-21T23:02:18.652Z,19.3
2019-01-21T23:04:19.309Z,18.1
2019-01-21T23:06:19.224Z,18.9
2019-01-21T23:08:18.905Z,20.4
2019-01-21T23:10:19.043Z,18.9
2019-01-21T23:12:18.678Z,18
2019-01-21T23:14:19.346Z,19.5
2019-01-21T23:16:18.747Z,18.5
2019-01-21T23:18:18.463Z,19.2
2019-01-21T23:20:19.110Z,17.5
2019-01-21T23:22:18.752Z,18.5
2019-01-21T23:24:19.442Z,18.9
2019-01-21T23:26:19.105Z,19
2019-01-21T23:28:19.346Z,18
2019-01-21T23:30:18.974Z,17.6
2019-01-21T23:32:18.633Z,20
2019-01-21T23:34:19.264Z,19.3
2019-01-21T23:36:18.443Z,17.6
2019-01-21T23:38:19.100Z,17.3
2019-01-21T23:40:19.265Z,18.4
2019-01-21T23:42:18.911Z,19.2
2019-01-21T23:44:18.547Z,17.6
2019-01-21T23:46:18.959Z,17.8
2019-01-21T23:48:18.635Z,16.9
2019-01-21T23:50:19.330Z,17.2
2019-01-21T23:52:18.711Z,18.2
2019-01-21T23:54:19.366Z,18.5
2019-01-21T23:56:19.261Z,18.1
2019-01-21T23:58:18.899Z,16.7
